Time;durP1;ratioP1;P1;durP2;ratioP2;P2;SDS_P1;SDS_P2;PMS_P1;PMS_P2;Temp;Humidity;BMP_temperature;BMP_pressure;BME280_temperature;BME280_humidity;BME280_pressure;Samples;Min_cycle;Max_cycle;Signal;HPM_P1;HPM_P2
2023/09/04 00:01:03;;;;;;;3.53;1.67;;;14.40;99.90;;;;;;5024544;28;20052;-65
2023/09/04 00:03:29;;;;;;;4.35;2.42;;;14.30;99.90;;;;;;5024204;28;20479;-65
2023/09/04 00:05:55;;;;;;;4.13;3.72;;;14.30;99.90;;;;;;5026578;28;20441;-65
2023/09/04 00:08:21;;;;;;;4.47;4.18;;;14.20;99.90;;;;;;5024361;28;20392;-65
2023/09/04 00:10:47;;;;;;;4.38;3.65;;;14.30;99.90;;;;;;5026266;28;20045;-65
2023/09/04 00:13:13;;;;;;;3.50;3.20;;;14.30;99.90;;;;;;5025358;28;20060;-65
2023/09/04 00:15:39;;;;;;;4.55;3.55;;;14.30;99.90;;;;;;5025167;28;20049;-65
2023/09/04 00:18:06;;;;;;;4.35;3.95;;;14.30;99.90;;;;;;5023831;28;20065;-65
2023/09/04 00:20:32;;;;;;;6.65;3.75;;;14.30;99.90;;;;;;5024943;28;20602;-65
2023/09/04 00:22:58;;;;;;;4.70;3.20;;;14.40;99.90;;;;;;5024707;28;20131;-65
2023/09/04 00:25:24;;;;;;;7.63;3.40;;;14.30;99.90;;;;;;5025092;28;20047;-65
2023/09/04 00:27:50;;;;;;;4.22;2.80;;;14.30;99.90;;;;;;5025957;28;20111;-65
2023/09/04 00:30:16;;;;;;;7.32;3.78;;;14.30;99.90;;;;;;5024800;28;20407;-65
2023/09/04 00:32:42;;;;;;;3.75;3.45;;;14.30;99.90;;;;;;5024835;28;20131;-65
2023/09/04 00:35:08;;;;;;;5.10;4.63;;;14.30;99.90;;;;;;5025421;28;20037;-65
2023/09/04 00:37:34;;;;;;;7.10;5.00;;;14.20;99.90;;;;;;5024651;28;20053;-65
2023/09/04 00:40:01;;;;;;;9.60;5.43;;;14.20;99.90;;;;;;5007823;28;20049;-65
2023/09/04 00:42:29;;;;;;;4.82;4.43;;;14.20;99.90;;;;;;5024447;28;20034;-65
2023/09/04 00:44:55;;;;;;;5.47;5.00;;;14.30;99.90;;;;;;5025992;28;20045;-65
2023/09/04 00:47:23;;;;;;;9.48;5.72;;;14.30;99.90;;;;;;5023664;28;20136;-65
2023/09/04 00:49:50;;;;;;;5.90;5.40;;;14.30;99.90;;;;;;5024785;28;20369;-65
2023/09/04 00:52:16;;;;;;;6.82;5.38;;;14.30;99.90;;;;;;5025041;28;20034;-65
2023/09/04 00:54:42;;;;;;;7.93;5.55;;;14.30;99.90;;;;;;5024983;28;20041;-65
2023/09/04 00:57:12;;;;;;;6.47;5.88;;;14.30;99.90;;;;;;5024974;28;20054;-65
2023/09/04 00:59:40;;;;;;;6.10;5.60;;;14.30;99.90;;;;;;5024100;28;20048;-65
2023/09/04 01:02:06;;;;;;;7.07;5.70;;;14.30;99.90;;;;;;5025302;28;20046;-65
2023/09/04 01:04:31;;;;;;;6.82;6.22;;;14.20;99.90;;;;;;5022724;28;20133;-65
2023/09/04 01:06:57;;;;;;;6.50;5.90;;;14.20;99.90;;;;;;5028038;28;20046;-65
2023/09/04 01:09:24;;;;;;;7.38;5.70;;;14.20;99.90;;;;;;5028072;28;20561;-65
2023/09/04 01:11:58;;;;;;;6.72;5.97;;;14.20;99.90;;;;;;5028709;28;20045;-65
2023/09/04 01:14:24;;;;;;;5.95;5.45;;;14.20;99.90;;;;;;5029065;28;20089;-65
2023/09/04 01:16:51;;;;;;;9.02;6.30;;;14.20;99.90;;;;;;5026133;28;20048;-65
2023/09/04 01:19:18;;;;;;;7.10;6.15;;;14.20;99.90;;;;;;5029177;28;20048;-65
2023/09/04 01:21:44;;;;;;;6.70;6.10;;;14.10;99.90;;;;;;5026241;28;20487;-65
2023/09/04 01:24:09;;;;;;;6.47;5.78;;;14.10;99.90;;;;;;5029133;28;20050;-65
2023/09/04 01:26:43;;;;;;;5.40;4.95;;;14.10;99.90;;;;;;5027044;28;20049;-65
2023/09/04 01:29:30;;;;;;;6.13;5.32;;;14.00;99.90;;;;;;5028506;28;20061;-65
2023/09/04 01:32:20;;;;;;;6.88;6.22;;;14.00;99.90;;;;;;5018764;28;20056;-65
2023/09/04 01:34:49;;;;;;;7.18;5.95;;;14.00;99.90;;;;;;5027126;28;20085;-65
2023/09/04 01:37:16;;;;;;;9.73;6.43;;;13.90;99.90;;;;;;5027538;28;20037;-65
2023/09/04 01:39:43;;;;;;;7.05;6.32;;;13.90;99.90;;;;;;5025767;28;20306;-65
2023/09/04 01:42:09;;;;;;;8.02;5.50;;;13.90;99.90;;;;;;5028505;28;20854;-65
2023/09/04 01:44:36;;;;;;;9.23;6.30;;;13.90;99.90;;;;;;5028662;28;20231;-65
2023/09/04 01:47:02;;;;;;;7.68;6.20;;;13.90;99.90;;;;;;5028132;28;20062;-65
2023/09/04 01:49:27;;;;;;;6.65;6.05;;;13.90;99.90;;;;;;5010819;28;20423;-65
2023/09/04 01:51:53;;;;;;;7.90;6.68;;;13.80;99.90;;;;;;5027225;28;20051;-65
2023/09/04 01:54:19;;;;;;;10.38;6.93;;;13.70;99.90;;;;;;5027385;28;20041;-65
2023/09/04 01:56:45;;;;;;;8.07;6.88;;;13.80;99.90;;;;;;5027125;28;20592;-65
2023/09/04 01:59:11;;;;;;;7.63;6.93;;;13.80;99.90;;;;;;5028435;28;20041;-65
2023/09/04 02:01:37;;;;;;;7.15;6.45;;;13.80;99.90;;;;;;5026464;28;20046;-65
2023/09/04 02:04:03;;;;;;;7.82;7.10;;;13.80;99.90;;;;;;5026076;28;20061;-65
2023/09/04 02:06:29;;;;;;;9.57;7.25;;;13.70;99.90;;;;;;5027512;28;20042;-65
2023/09/04 02:08:56;;;;;;;9.45;7.55;;;13.70;99.90;;;;;;5026222;28;20110;-65
2023/09/04 02:11:21;;;;;;;11.40;7.55;;;13.70;99.90;;;;;;5028620;28;20484;-65
2023/09/04 02:13:47;;;;;;;8.93;7.07;;;13.70;99.90;;;;;;5008351;28;20046;-65
2023/09/04 02:16:14;;;;;;;7.40;6.57;;;13.70;99.90;;;;;;5027753;28;20107;-65
2023/09/04 02:18:40;;;;;;;10.75;6.53;;;13.70;99.90;;;;;;5009256;28;20049;-65
2023/09/04 02:21:06;;;;;;;7.10;6.40;;;13.60;99.90;;;;;;5009801;28;20045;-65
2023/09/04 02:23:32;;;;;;;8.05;7.30;;;13.60;99.90;;;;;;5027881;28;20049;-65
2023/09/04 02:25:58;;;;;;;7.90;6.78;;;13.60;99.90;;;;;;5025140;28;20042;-65
2023/09/04 02:28:24;;;;;;;7.13;6.55;;;13.60;99.90;;;;;;5026658;28;20045;-65
2023/09/04 02:30:50;;;;;;;7.28;6.68;;;13.60;99.90;;;;;;5025394;28;20060;-65
2023/09/04 02:33:16;;;;;;;9.75;6.15;;;13.60;99.90;;;;;;5026346;28;20044;-65
2023/09/04 02:35:43;;;;;;;7.82;7.03;;;13.60;99.90;;;;;;5027133;28;20045;-65
2023/09/04 02:38:09;;;;;;;8.77;7.03;;;13.60;99.90;;;;;;5027236;28;20504;-65
2023/09/04 02:40:35;;;;;;;12.20;7.65;;;13.50;99.90;;;;;;5026032;28;20048;-65
2023/09/04 02:43:00;;;;;;;9.55;7.00;;;13.50;99.90;;;;;;5026281;28;20043;-65
2023/09/04 02:45:26;;;;;;;7.65;6.72;;;13.50;99.90;;;;;;5027790;28;20727;-65
2023/09/04 02:47:52;;;;;;;7.50;6.75;;;13.50;99.90;;;;;;5025902;28;20068;-65
2023/09/04 02:50:18;;;;;;;9.10;6.57;;;13.50;99.90;;;;;;5027456;28;20059;-65
2023/09/04 02:52:44;;;;;;;11.27;7.22;;;13.50;99.90;;;;;;5026837;28;20041;-65
2023/09/04 02:55:10;;;;;;;7.95;7.22;;;13.50;99.90;;;;;;5025913;28;20037;-65
2023/09/04 02:57:35;;;;;;;7.97;7.25;;;13.50;99.90;;;;;;5024949;28;20500;-65
2023/09/04 03:00:05;;;;;;;6.97;6.32;;;13.50;99.90;;;;;;5024947;28;20084;-65
2023/09/04 03:02:35;;;;;;;8.70;7.00;;;13.50;99.90;;;;;;5027057;28;20509;-65
2023/09/04 03:05:00;;;;;;;7.82;6.43;;;13.50;99.90;;;;;;5025616;28;20045;-65
2023/09/04 03:07:27;;;;;;;8.10;6.88;;;13.40;99.90;;;;;;5027724;28;20048;-65
2023/09/04 03:09:57;;;;;;;10.70;7.20;;;13.40;99.90;;;;;;5025173;28;20048;-64
2023/09/04 03:12:29;;;;;;;8.15;7.35;;;13.40;99.90;;;;;;5027188;28;20045;-65
2023/09/04 03:14:59;;;;;;;9.95;6.63;;;13.40;99.90;;;;;;5026076;28;20511;-65
2023/09/04 03:17:25;;;;;;;8.95;6.32;;;13.40;99.90;;;;;;5026093;28;20112;-65
2023/09/04 03:19:53;;;;;;;9.68;6.85;;;13.40;99.90;;;;;;5025174;28;20068;-65
2023/09/04 03:22:19;;;;;;;7.65;6.63;;;13.40;99.90;;;;;;5025667;28;20096;-65
2023/09/04 03:24:46;;;;;;;8.93;6.63;;;13.40;99.90;;;;;;5026942;28;20053;-65
2023/09/04 03:27:12;;;;;;;8.23;6.55;;;13.40;99.90;;;;;;5025203;28;20077;-65
2023/09/04 03:29:38;;;;;;;6.53;6.00;;;13.40;99.90;;;;;;5025149;28;20468;-64
2023/09/04 03:32:05;;;;;;;6.85;6.25;;;13.30;99.90;;;;;;5025049;28;20543;-65
2023/09/04 03:34:31;;;;;;;6.70;6.10;;;13.30;99.90;;;;;;5025988;28;20095;-65
2023/09/04 03:36:57;;;;;;;6.78;6.05;;;13.30;99.90;;;;;;5026086;28;20053;-65
2023/09/04 03:39:23;;;;;;;6.40;5.53;;;13.20;99.90;;;;;;5025766;28;20041;-64
2023/09/04 03:41:48;;;;;;;5.90;5.32;;;13.20;99.90;;;;;;5024619;28;20060;-65
2023/09/04 03:44:14;;;;;;;5.63;5.13;;;13.20;99.90;;;;;;5007360;28;20128;-65
2023/09/04 03:46:40;;;;;;;5.85;5.25;;;13.10;99.90;;;;;;5026177;28;20049;-65
2023/09/04 03:49:06;;;;;;;6.78;5.43;;;13.00;99.90;;;;;;5025550;28;20049;-65
2023/09/04 03:51:33;;;;;;;6.00;5.38;;;13.00;99.90;;;;;;5025898;28;20041;-65
2023/09/04 03:54:02;;;;;;;9.15;4.88;;;13.00;99.90;;;;;;5025471;28;20037;-65
2023/09/04 03:56:31;;;;;;;7.85;5.15;;;13.00;99.90;;;;;;5025436;28;20435;-65
2023/09/04 03:58:57;;;;;;;8.10;4.88;;;13.00;99.90;;;;;;5025058;28;20365;-64
2023/09/04 04:01:24;;;;;;;5.90;5.40;;;13.00;99.90;;;;;;5024761;28;20125;-64
2023/09/04 04:03:50;;;;;;;6.15;5.55;;;13.00;99.90;;;;;;5026452;28;20042;-64
2023/09/04 04:06:16;;;;;;;5.50;5.00;;;12.90;99.90;;;;;;5023472;28;20128;-65
2023/09/04 04:08:42;;;;;;;6.82;5.43;;;12.90;99.90;;;;;;5026401;28;20407;-64
2023/09/04 04:11:10;;;;;;;6.05;5.45;;;12.90;99.90;;;;;;5023310;28;20053;-64
2023/09/04 04:13:36;;;;;;;7.43;5.68;;;12.90;99.90;;;;;;5025373;28;20462;-65
2023/09/04 04:16:02;;;;;;;7.57;5.93;;;12.90;99.90;;;;;;5024057;28;20041;-64
2023/09/04 04:18:30;;;;;;;7.45;6.22;;;12.90;99.90;;;;;;5024897;28;20478;-64
2023/09/04 04:20:56;;;;;;;9.70;6.63;;;12.90;99.90;;;;;;5024430;28;20128;-64
2023/09/04 04:23:22;;;;;;;6.25;5.63;;;12.90;99.90;;;;;;5024733;28;20060;-64
2023/09/04 04:25:49;;;;;;;7.93;6.28;;;12.90;99.90;;;;;;5024533;28;20124;-64
2023/09/04 04:28:19;;;;;;;9.98;5.93;;;12.90;99.90;;;;;;5023404;28;20506;-64
2023/09/04 04:30:45;;;;;;;9.43;6.40;;;12.90;99.90;;;;;;5025497;28;20899;-64
2023/09/04 04:33:10;;;;;;;7.68;6.20;;;12.90;99.90;;;;;;5024665;28;20034;-64
2023/09/04 04:35:36;;;;;;;7.55;6.13;;;12.90;99.90;;;;;;5025051;28;20495;-64
2023/09/04 04:38:02;;;;;;;6.07;5.50;;;12.90;99.90;;;;;;5025455;28;20042;-65
2023/09/04 04:40:29;;;;;;;7.28;6.10;;;12.80;99.90;;;;;;5025718;28;20049;-64
2023/09/04 04:42:56;;;;;;;6.32;5.78;;;12.80;99.90;;;;;;5028427;28;20476;-64
2023/09/04 04:45:22;;;;;;;7.25;6.47;;;12.90;99.90;;;;;;5027209;28;20060;-65
2023/09/04 04:47:48;;;;;;;9.32;5.88;;;12.90;99.90;;;;;;5029582;28;20049;-65
2023/09/04 04:50:14;;;;;;;11.15;5.72;;;12.90;99.90;;;;;;5028734;28;20041;-64
2023/09/04 04:52:40;;;;;;;6.13;5.35;;;12.90;99.90;;;;;;5027612;28;20042;-65
2023/09/04 04:55:07;;;;;;;6.20;5.60;;;12.90;99.90;;;;;;5029138;28;20044;-65
2023/09/04 04:57:36;;;;;;;6.15;5.55;;;12.90;99.90;;;;;;5028138;28;20140;-65
2023/09/04 05:00:06;;;;;;;6.40;5.47;;;12.80;99.90;;;;;;5029900;28;20084;-64
2023/09/04 05:02:36;;;;;;;8.85;4.97;;;12.80;99.90;;;;;;5028182;28;20061;-65
2023/09/04 05:05:02;;;;;;;11.50;5.50;;;12.90;99.90;;;;;;5029084;28;20530;-65
2023/09/04 05:07:29;;;;;;;6.68;4.93;;;12.80;99.90;;;;;;5027431;28;20158;-64
2023/09/04 05:09:56;;;;;;;5.90;5.40;;;12.80;99.90;;;;;;5027479;28;20404;-65
2023/09/04 05:12:22;;;;;;;5.25;4.60;;;12.80;99.90;;;;;;5027216;28;20116;-64
2023/09/04 05:14:48;;;;;;;8.85;5.38;;;12.80;99.90;;;;;;5027799;28;20049;-64
2023/09/04 05:17:14;;;;;;;9.57;5.50;;;12.80;99.90;;;;;;5029222;28;20251;-64
2023/09/04 05:19:40;;;;;;;8.13;5.93;;;12.80;99.90;;;;;;5028151;28;20041;-64
2023/09/04 05:22:05;;;;;;;6.60;5.65;;;12.80;99.90;;;;;;5027323;28;20411;-64
2023/09/04 05:24:31;;;;;;;10.73;5.55;;;12.80;99.90;;;;;;5025507;28;20033;-64
2023/09/04 05:26:57;;;;;;;6.93;5.80;;;12.90;99.90;;;;;;5027037;28;20061;-64
2023/09/04 05:29:23;;;;;;;7.85;6.10;;;12.80;99.90;;;;;;5028583;28;20041;-64
2023/09/04 05:31:51;;;;;;;5.45;5.05;;;12.90;99.90;;;;;;5028160;28;20463;-65
2023/09/04 05:34:17;;;;;;;5.63;5.10;;;12.90;99.90;;;;;;5028840;28;20053;-64
2023/09/04 05:36:43;;;;;;;14.35;7.30;;;12.90;99.90;;;;;;5027792;28;20137;-65
2023/09/04 05:39:09;;;;;;;5.07;4.68;;;13.00;99.90;;;;;;5028775;28;20547;-65
2023/09/04 05:41:36;;;;;;;5.63;5.10;;;12.90;99.90;;;;;;5027720;28;20044;-65
2023/09/04 05:44:02;;;;;;;10.80;5.50;;;13.00;99.90;;;;;;5028510;28;20061;-64
2023/09/04 05:46:28;;;;;;;7.10;5.43;;;13.10;99.90;;;;;;5026567;28;20357;-64
2023/09/04 05:48:54;;;;;;;7.95;5.50;;;13.10;99.90;;;;;;5027733;28;20047;-65
2023/09/04 05:51:19;;;;;;;7.82;5.60;;;13.10;99.90;;;;;;5027654;28;20076;-65
2023/09/04 05:53:45;;;;;;;8.32;5.95;;;13.20;99.90;;;;;;5025817;28;20994;-64
2023/09/04 05:56:11;;;;;;;7.53;6.72;;;13.20;99.90;;;;;;5027231;28;20049;-65
2023/09/04 05:58:49;;;;;;;8.43;6.75;;;13.30;99.90;;;;;;5027690;28;20403;-64
2023/09/04 06:01:15;;;;;;;10.38;7.80;;;13.30;99.90;;;;;;5026891;28;20099;-64
2023/09/04 06:03:43;;;;;;;8.27;7.55;;;13.30;99.90;;;;;;5027403;28;20476;-64
2023/09/04 06:06:09;;;;;;;8.13;7.32;;;13.40;99.90;;;;;;5027787;28;20075;-64
2023/09/04 06:08:35;;;;;;;11.73;7.72;;;13.50;99.90;;;;;;5009580;28;20099;-64
2023/09/04 06:11:02;;;;;;;10.90;8.15;;;13.50;99.90;;;;;;5026889;28;20052;-64
2023/09/04 06:13:28;;;;;;;12.82;7.70;;;13.60;99.90;;;;;;5027907;28;20107;-64
2023/09/04 06:15:54;;;;;;;10.20;6.85;;;13.70;99.90;;;;;;5022871;28;20133;-64
2023/09/04 06:18:20;;;;;;;9.95;7.53;;;13.80;99.90;;;;;;5026077;28;20140;-65
2023/09/04 06:20:49;;;;;;;15.55;7.65;;;13.80;99.90;;;;;;5026123;28;20056;-64
2023/09/04 06:23:15;;;;;;;10.32;6.97;;;14.00;99.90;;;;;;5027212;28;20114;-65
2023/09/04 06:25:44;;;;;;;8.02;7.15;;;14.00;99.90;;;;;;5027488;28;20041;-64
2023/09/04 06:28:10;;;;;;;8.25;7.18;;;14.10;99.90;;;;;;5026164;28;20443;-64
2023/09/04 06:30:37;;;;;;;7.57;6.88;;;14.10;99.90;;;;;;5028033;28;20030;-64
2023/09/04 06:33:03;;;;;;;7.68;6.90;;;14.20;99.90;;;;;;5026595;28;20049;-64
2023/09/04 06:35:29;;;;;;;7.88;6.93;;;14.30;99.90;;;;;;5026033;28;20064;-64
2023/09/04 06:37:56;;;;;;;7.72;6.93;;;14.50;99.90;;;;;;5026153;28;20507;-65
2023/09/04 06:40:22;;;;;;;8.00;6.88;;;14.60;99.90;;;;;;5027068;28;20128;-64
2023/09/04 06:42:47;;;;;;;13.23;7.47;;;14.80;99.90;;;;;;5027272;28;20087;-65
2023/09/04 06:45:13;;;;;;;9.15;6.68;;;15.00;99.90;;;;;;5025790;28;20065;-65
2023/09/04 06:47:41;;;;;;;8.27;6.55;;;15.20;99.90;;;;;;5027075;28;20450;-64
2023/09/04 06:50:07;;;;;;;9.38;7.00;;;15.40;99.90;;;;;;5024975;28;20049;-65
2023/09/04 06:52:33;;;;;;;9.07;6.93;;;15.50;99.90;;;;;;5026880;28;20045;-64
2023/09/04 06:54:59;;;;;;;6.97;6.28;;;15.70;99.90;;;;;;5025899;28;20046;-64
2023/09/04 06:57:25;;;;;;;7.15;6.43;;;15.80;99.90;;;;;;5027515;28;20056;-65
2023/09/04 06:59:52;;;;;;;16.15;6.55;;;15.90;99.90;;;;;;5026118;28;20128;-64
2023/09/04 07:02:19;;;;;;;8.55;6.35;;;16.10;99.90;;;;;;5026624;28;20053;-65
2023/09/04 07:04:45;;;;;;;9.80;6.13;;;16.40;99.90;;;;;;4992842;28;20072;-65
2023/09/04 07:07:11;;;;;;;7.20;5.60;;;16.60;99.90;;;;;;5024835;28;20049;-64
2023/09/04 07:09:37;;;;;;;6.38;5.78;;;16.80;99.90;;;;;;5026291;28;20069;-65
2023/09/04 07:12:05;;;;;;;7.28;5.82;;;17.10;99.90;;;;;;5007550;28;20503;-65
2023/09/04 07:14:32;;;;;;;7.93;5.63;;;17.40;99.90;;;;;;5024826;28;20064;-65
2023/09/04 07:16:58;;;;;;;9.15;5.97;;;17.60;99.90;;;;;;5025979;28;20165;-65
2023/09/04 07:19:24;;;;;;;6.82;5.78;;;17.90;99.90;;;;;;5023895;28;20037;-65
2023/09/04 07:21:50;;;;;;;9.32;5.68;;;18.10;99.90;;;;;;5025903;28;20392;-65
2023/09/04 07:24:16;;;;;;;7.50;5.43;;;18.40;99.90;;;;;;5025527;28;20427;-65
2023/09/04 07:26:42;;;;;;;6.03;4.93;;;18.70;99.90;;;;;;5026792;28;20148;-65
2023/09/04 07:29:08;;;;;;;4.90;4.50;;;18.90;99.90;;;;;;5025114;28;20618;-65
2023/09/04 07:31:34;;;;;;;4.72;4.38;;;19.00;99.90;;;;;;5025905;28;20053;-65
2023/09/04 07:34:01;;;;;;;5.32;4.55;;;19.30;99.90;;;;;;5024869;28;20049;-65
2023/09/04 07:36:27;;;;;;;4.75;4.10;;;19.40;99.90;;;;;;5024750;28;20092;-65
2023/09/04 07:38:53;;;;;;;10.85;3.13;;;19.60;99.90;;;;;;5023688;28;20053;-65
2023/09/04 07:41:19;;;;;;;6.80;3.45;;;19.70;99.90;;;;;;5025089;28;20476;-65
2023/09/04 07:43:44;;;;;;;6.40;3.47;;;19.80;99.90;;;;;;5024321;28;20456;-64
2023/09/04 07:46:10;;;;;;;9.00;3.72;;;19.90;99.90;;;;;;5023343;28;20087;-65
2023/09/04 07:48:36;;;;;;;8.13;3.33;;;20.00;99.90;;;;;;5026057;28;20464;-65
2023/09/04 07:51:04;;;;;;;7.63;3.50;;;20.20;99.90;;;;;;5024581;28;20041;-65
2023/09/04 07:53:30;;;;;;;3.58;3.22;;;20.40;99.90;;;;;;5025476;28;20033;-65
2023/09/04 07:55:55;;;;;;;5.50;3.35;;;20.50;99.90;;;;;;5023610;28;20442;-64
2023/09/04 07:58:21;;;;;;;3.70;3.20;;;20.50;98.10;;;;;;5025930;28;20377;-65
2023/09/04 08:00:49;;;;;;;4.93;3.10;;;20.60;99.90;;;;;;5023794;28;20049;-64
2023/09/04 08:03:16;;;;;;;5.55;2.70;;;20.80;98.00;;;;;;5019696;28;20061;-65
2023/09/04 08:05:41;;;;;;;2.75;2.55;;;20.80;93.20;;;;;;5026067;28;20034;-64
2023/09/04 08:08:09;;;;;;;4.45;3.00;;;20.90;86.60;;;;;;5024897;28;20049;-65
2023/09/04 08:10:39;;;;;;;3.92;2.95;;;20.90;91.00;;;;;;5025583;28;20424;-65
2023/09/04 08:13:10;;;;;;;3.75;3.35;;;21.10;90.40;;;;;;5024492;28;20570;-65
2023/09/04 08:15:35;;;;;;;3.70;3.40;;;21.20;93.40;;;;;;5024768;28;20104;-65
2023/09/04 08:18:02;;;;;;;5.68;3.67;;;21.40;91.40;;;;;;5025493;28;20072;-65
2023/09/04 08:20:28;;;;;;;4.00;3.70;;;21.50;89.50;;;;;;5007663;28;20047;-64
2023/09/04 08:22:53;;;;;;;5.80;3.92;;;21.40;84.00;;;;;;5024078;28;20045;-65
2023/09/04 08:25:20;;;;;;;7.15;3.47;;;21.50;86.10;;;;;;5024491;28;20068;-64
2023/09/04 08:27:45;;;;;;;10.07;3.10;;;21.50;78.80;;;;;;5025462;28;20119;-65
2023/09/04 08:30:11;;;;;;;7.38;3.00;;;21.50;62.60;;;;;;5024812;28;20049;-65
2023/09/04 08:32:37;;;;;;;4.30;3.20;;;21.50;61.10;;;;;;5007275;28;20124;-65
2023/09/04 08:35:04;;;;;;;3.22;2.92;;;21.60;59.50;;;;;;5025322;28;20059;-65
2023/09/04 08:37:30;;;;;;;5.00;2.80;;;21.60;55.30;;;;;;5024434;28;20483;-65
2023/09/04 08:39:56;;;;;;;2.58;2.38;;;21.80;57.20;;;;;;5024681;28;20153;-64
2023/09/04 08:42:22;;;;;;;3.60;2.08;;;21.70;39.00;;;;;;5024995;28;20422;-65
2023/09/04 08:44:50;;;;;;;2.47;2.28;;;21.80;39.20;;;;;;5024060;28;20120;-65
2023/09/04 08:47:19;;;;;;;5.72;2.42;;;21.80;30.00;;;;;;5024544;28;20061;-64
2023/09/04 08:49:45;;;;;;;3.08;2.38;;;21.70;37.40;;;;;;5025203;28;20042;-65
2023/09/04 08:52:12;;;;;;;1.98;1.88;;;21.80;43.90;;;;;;5024989;28;20540;-65
2023/09/04 08:54:39;;;;;;;8.40;2.50;;;21.90;49.50;;;;;;5023911;28;20069;-64
2023/09/04 08:57:05;;;;;;;3.35;1.88;;;22.00;34.50;;;;;;5022240;28;20045;-65
2023/09/04 08:59:30;;;;;;;2.90;1.70;;;22.00;38.10;;;;;;5006919;28;20049;-65
2023/09/04 09:02:00;;;;;;;2.63;1.40;;;22.00;21.50;;;;;;5023666;28;20064;-65
2023/09/04 09:04:26;;;;;;;2.40;1.23;;;22.10;16.90;;;;;;5024449;28;20064;-64
2023/09/04 09:06:53;;;;;;;2.78;1.10;;;22.10;1.00;;;;;;5023565;28;20052;-64
2023/09/04 09:09:23;;;;;;;1.85;1.02;;;22.10;7.30;;;;;;5023505;28;20041;-65
2023/09/04 09:11:54;;;;;;;1.08;1.05;;;22.20;1.00;;;;;;5023239;28;20041;-65
2023/09/04 09:14:22;;;;;;;1.77;1.00;;;22.20;1.00;;;;;;5024593;28;20037;-65
2023/09/04 09:16:47;;;;;;;2.15;1.20;;;22.30;1.00;;;;;;5020985;28;20104;-65
2023/09/04 09:19:14;;;;;;;2.08;1.20;;;22.30;1.00;;;;;;5023459;28;20515;-64
2023/09/04 09:21:40;;;;;;;3.33;1.40;;;22.30;1.00;;;;;;5021703;28;20095;-65
2023/09/04 09:24:19;;;;;;;2.60;1.33;;;22.40;1.00;;;;;;5024513;28;20053;-64
2023/09/04 09:26:50;;;;;;;2.25;1.15;;;22.40;1.00;;;;;;5019229;28;20488;-64
2023/09/04 09:29:17;;;;;;;1.42;0.85;;;22.40;1.00;;;;;;5027225;28;20535;-65
2023/09/04 09:31:45;;;;;;;1.38;1.02;;;22.40;1.00;;;;;;5025806;28;20496;-65
2023/09/04 09:34:12;;;;;;;2.38;1.10;;;22.40;1.00;;;;;;5021788;28;20048;-65
2023/09/04 09:36:38;;;;;;;1.10;1.00;;;22.40;1.00;;;;;;5026331;28;20129;-65
2023/09/04 09:39:05;;;;;;;1.65;1.05;;;22.50;1.00;;;;;;5024280;28;20475;-65
2023/09/04 09:41:31;;;;;;;3.60;1.20;;;22.60;1.00;;;;;;5026026;28;20083;-65
2023/09/04 09:44:02;;;;;;;4.00;1.38;;;22.70;1.00;;;;;;5023816;28;20053;-65
2023/09/04 09:46:29;;;;;;;4.75;1.48;;;22.80;1.00;;;;;;5025397;28;20180;-64
2023/09/04 09:48:55;;;;;;;1.27;1.13;;;22.70;1.00;;;;;;5017343;28;20446;-65
2023/09/04 09:51:20;;;;;;;4.78;1.40;;;22.80;1.00;;;;;;5025283;28;20053;-65
2023/09/04 09:53:51;;;;;;;1.83;1.40;;;22.80;1.00;;;;;;5026756;28;20053;-65
2023/09/04 09:56:18;;;;;;;2.00;1.38;;;22.80;1.00;;;;;;5007584;28;20037;-65
2023/09/04 09:58:46;;;;;;;1.65;1.30;;;22.80;1.00;;;;;;5024862;28;20038;-65
2023/09/04 10:01:13;;;;;;;4.68;1.35;;;22.80;1.00;;;;;;5026228;28;20037;-65
2023/09/04 10:03:39;;;;;;;1.95;1.00;;;22.80;1.00;;;;;;5026910;28;20046;-65
2023/09/04 10:06:06;;;;;;;1.95;1.55;;;22.90;1.00;;;;;;5024453;28;20068;-64
2023/09/04 10:08:44;;;;;;;2.08;1.50;;;22.90;1.00;;;;;;5027387;28;20049;-65
2023/09/04 10:11:14;;;;;;;4.22;1.88;;;22.90;1.00;;;;;;5028277;28;20160;-65
2023/09/04 10:14:08;;;;;;;2.80;1.75;;;23.00;1.00;;;;;;5024974;28;20068;-65
2023/09/04 10:16:43;;;;;;;1.55;1.30;;;23.10;1.00;;;;;;5015727;28;20056;-65
2023/09/04 10:19:11;;;;;;;2.50;1.40;;;23.10;1.00;;;;;;5024090;28;20567;-65
2023/09/04 10:21:42;;;;;;;1.85;1.30;;;23.20;1.00;;;;;;5025824;28;20045;-65
2023/09/04 10:24:13;;;;;;;5.82;1.35;;;23.30;1.00;;;;;;5026659;28;20566;-64
2023/09/04 10:26:52;;;;;;;2.03;1.23;;;23.40;1.00;;;;;;5024309;28;20159;-65
2023/09/04 10:29:25;;;;;;;1.52;1.30;;;23.40;1.00;;;;;;5024449;28;20099;-65
2023/09/04 10:31:52;;;;;;;1.27;1.17;;;23.40;1.00;;;;;;5023929;28;20075;-65
2023/09/04 10:34:19;;;;;;;5.57;1.00;;;23.40;1.00;;;;;;5026556;28;20042;-65
2023/09/04 10:36:48;;;;;;;1.80;1.30;;;23.40;1.00;;;;;;5026008;28;20081;-65
2023/09/04 10:39:14;;;;;;;1.30;1.20;;;23.40;1.00;;;;;;5023828;28;20064;-64
2023/09/04 10:41:40;;;;;;;3.03;1.25;;;23.50;1.00;;;;;;5025359;28;20312;-65
2023/09/04 10:44:08;;;;;;;1.75;1.30;;;23.50;1.00;;;;;;5024039;28;20088;-65
2023/09/04 10:46:34;;;;;;;6.47;1.10;;;23.50;1.00;;;;;;5024148;28;20049;-65
2023/09/04 10:49:00;;;;;;;4.88;1.15;;;23.60;1.00;;;;;;5025708;28;20038;-65
2023/09/04 10:51:37;;;;;;;4.22;1.40;;;23.60;1.00;;;;;;5014761;28;20053;-65
2023/09/04 10:54:18;;;;;;;3.28;1.42;;;23.70;1.00;;;;;;5026379;28;20051;-65
2023/09/04 10:56:57;;;;;;;1.40;1.10;;;23.80;1.00;;;;;;5025124;28;20080;-65
2023/09/04 10:59:23;;;;;;;;;;;23.80;1.00;;;;;;4982299;28;20144;-65
2023/09/04 11:01:49;;;;;;;1.40;1.30;;;23.90;1.00;;;;;;5008248;28;19972;-65
2023/09/04 11:04:33;;;;;;;4.35;2.33;;;23.90;1.00;;;;;;5005235;28;20041;-65
2023/09/04 11:07:20;;;;;;;1.38;1.30;;;24.00;1.00;;;;;;5010663;28;20053;-65
2023/09/04 11:09:47;;;;;;;3.08;1.30;;;24.10;1.00;;;;;;5003326;28;20083;-65
2023/09/04 11:12:19;;;;;;;7.07;2.15;;;24.10;1.00;;;;;;5005208;28;20046;-65
2023/09/04 11:14:51;;;;;;;2.55;1.60;;;24.10;1.00;;;;;;5005382;28;20463;-65
2023/09/04 11:17:20;;;;;;;1.85;1.70;;;24.10;1.00;;;;;;5006511;28;20057;-65
2023/09/04 11:19:46;;;;;;;4.22;1.65;;;24.10;1.00;;;;;;4989209;28;20061;-65
2023/09/04 11:22:33;;;;;;;2.30;1.42;;;24.20;1.00;;;;;;5005091;28;20041;-65
2023/09/04 11:24:59;;;;;;;1.85;1.10;;;24.30;1.00;;;;;;5000666;28;20408;-65
2023/09/04 11:27:26;;;;;;;1.63;1.15;;;24.30;1.00;;;;;;5003486;28;20038;-65
2023/09/04 11:29:52;;;;;;;1.65;1.50;;;24.20;1.00;;;;;;5007916;28;20404;-65
2023/09/04 11:32:19;;;;;;;1.75;1.20;;;24.20;1.00;;;;;;5007173;28;20042;-65
2023/09/04 11:34:46;;;;;;;1.00;1.00;;;24.30;1.00;;;;;;5006283;28;20496;-65
2023/09/04 11:37:12;;;;;;;2.92;1.13;;;24.30;1.00;;;;;;5010896;28;20054;-65
2023/09/04 11:40:12;;;;;;;1.00;0.90;;;24.20;1.00;;;;;;5000935;28;20050;-65
2023/09/04 11:42:38;;;;;;;3.83;0.98;;;24.30;1.00;;;;;;4977443;28;20100;-65
2023/09/04 11:45:05;;;;;;;1.88;1.10;;;24.30;1.00;;;;;;5013145;28;20543;-65
2023/09/04 11:47:31;;;;;;;1.10;0.98;;;24.30;1.00;;;;;;5009398;28;20038;-65
2023/09/04 11:49:57;;;;;;;4.63;1.20;;;24.30;1.00;;;;;;5008750;28;20053;-65
2023/09/04 11:52:28;;;;;;;2.55;0.95;;;24.30;1.00;;;;;;5008303;28;20424;-65
2023/09/04 11:54:54;;;;;;;1.15;1.00;;;24.30;1.00;;;;;;4993342;28;20140;-65
2023/09/04 11:57:21;;;;;;;0.90;0.90;;;24.40;1.00;;;;;;5011505;28;20124;-65
2023/09/04 11:59:47;;;;;;;0.82;0.82;;;24.30;1.00;;;;;;5008668;28;20437;-65
2023/09/04 12:02:12;;;;;;;0.90;0.90;;;24.20;1.00;;;;;;5002842;28;20616;-65
2023/09/04 12:04:38;;;;;;;1.38;0.93;;;24.30;1.00;;;;;;4999732;28;20092;-65
2023/09/04 12:07:07;;;;;;;2.25;0.63;;;24.50;1.00;;;;;;5007214;28;20075;-65
2023/09/04 12:09:37;;;;;;;1.63;1.02;;;24.50;1.00;;;;;;5005987;28;20056;-65
2023/09/04 12:12:04;;;;;;;2.17;0.98;;;24.70;1.00;;;;;;5006576;28;20120;-66
2023/09/04 12:14:30;;;;;;;1.48;0.77;;;24.70;1.00;;;;;;5003662;28;20125;-65
2023/09/04 12:16:56;;;;;;;1.42;0.90;;;24.70;1.00;;;;;;5006342;28;20049;-65
2023/09/04 12:19:26;;;;;;;1.80;1.00;;;24.70;1.00;;;;;;5005129;28;20041;-65
2023/09/04 12:21:52;;;;;;;0.95;0.60;;;24.80;1.00;;;;;;5006138;28;20046;-66
2023/09/04 12:24:19;;;;;;;0.98;0.90;;;24.80;1.00;;;;;;5003604;28;20050;-65
2023/09/04 12:26:49;;;;;;;1.65;1.00;;;24.70;1.00;;;;;;5006133;28;20140;-66
2023/09/04 12:29:17;;;;;;;0.88;0.88;;;24.70;1.00;;;;;;5006255;28;20455;-66
2023/09/04 12:31:43;;;;;;;1.08;1.00;;;24.70;1.00;;;;;;5003854;28;20038;-65
2023/09/04 12:34:08;;;;;;;1.48;0.70;;;24.70;1.00;;;;;;5006173;28;20411;-65
2023/09/04 12:36:35;;;;;;;1.15;1.05;;;24.60;1.00;;;;;;5004738;28;20054;-66
2023/09/04 12:39:01;;;;;;;6.80;0.80;;;24.60;1.00;;;;;;5004576;28;20046;-66
2023/09/04 12:41:27;;;;;;;0.73;0.73;;;24.50;1.00;;;;;;5005486;28;20511;-65
2023/09/04 12:43:53;;;;;;;1.42;1.02;;;24.50;1.00;;;;;;5004953;28;20498;-66
2023/09/04 12:46:19;;;;;;;1.08;0.85;;;24.50;1.00;;;;;;5005635;28;20042;-66
2023/09/04 12:48:46;;;;;;;0.90;0.73;;;24.40;1.00;;;;;;5003750;28;20033;-66
2023/09/04 12:51:12;;;;;;;1.88;1.02;;;24.30;1.00;;;;;;5005796;28;20117;-66